Strona główna
METAR-TAF:

METAR-TAF

Lotnisko :

Port lotniczy Ålesund

Ålesund, Norwegia

Szerokość geograficzna: 62-34N, Długość geograficzna: 006-07E, wysokość: 2 m

Aktualna obserwacja pogody

Raport powstał 7 minut temu, godzina 23:50 UTC
Wiatr 4 kt od południe
Temperatura 3°C
Wilgotność 81%
Ciśnienie 1027 hPa
Widzialność 10 km lub więcej

METAR: ENAL 182350Z AUTO 18004KT 9999 NCD 03/00 Q1027

czas: 01:57 (23:57 UTC)

Prognoza

Raport powstał 6 godziny i 57 minut temu, godzina 17:00 UTC
Prognoza ważna od 18 godzina 18 UTC do 18 godzina 22 UTC
Wiatr 5 kt z kierunków zmiennych
Widzialność 10 km lub więcej
Brak chmur poniżej 1500 m i brak chmur cumulonimbus

TAF: ENAL 181700Z 1818/1822 VRB05KT CAVOK

Obserwacja i prognoza pogody dla ponad 4000 lotnisk (raport METAR i TAF).

Dostępne stacje oznaczono żółtymi i czerwonymi punktami na mapie.

Najedź kursorem aby zobaczyć nazwę stacji.

Kliknij aby zobaczyć obserwacje i prognozy pogody.

Aby zmienić mapę: kliknij na zielony przycisk z czarnym krzyżykiem, aby powiększyć; na zielony przycisk z myślnikiem, aby pomniejszyć; na zielone strzałki, aby przejść do map sąsiednich.


METAR-TAF: